Time;durP1;ratioP1;P1;durP2;ratioP2;P2;SDS_P1;SDS_P2;PMS_P1;PMS_P2;Temp;Humidity;BMP_temperature;BMP_pressure;BME280_temperature;BME280_humidity;BME280_pressure;Samples;Min_cycle;Max_cycle;Signal;HPM_P1;HPM_P2
2023/03/17 00:00:14;;;;;;;48.27;16.70;;;5.60;95.50;;;;;;5064368;28;20471;-59
2023/03/17 00:02:44;;;;;;;33.17;11.67;;;6.20;95.80;;;;;;5063431;28;20479;-59
2023/03/17 00:05:16;;;;;;;28.10;10.63;;;6.30;95.90;;;;;;5057236;28;21219;-59
2023/03/17 00:07:44;;;;;;;23.07;10.20;;;6.30;95.90;;;;;;5058909;28;20536;-59
2023/03/17 00:10:16;;;;;;;45.03;15.30;;;6.20;95.70;;;;;;5050327;28;20470;-59
2023/03/17 00:12:44;;;;;;;27.73;11.10;;;6.30;95.70;;;;;;5049629;28;20480;-59
2023/03/17 00:15:12;;;;;;;34.40;13.30;;;6.30;95.60;;;;;;5041442;28;20522;-59
2023/03/17 00:17:39;;;;;;;28.33;9.43;;;6.20;95.70;;;;;;5063877;28;20813;-60
2023/03/17 00:20:10;;;;;;;28.80;11.73;;;6.10;96.00;;;;;;5064457;28;20486;-59
2023/03/17 00:22:38;;;;;;;31.07;12.33;;;6.20;96.10;;;;;;5066620;28;20479;-59
2023/03/17 00:25:20;;;;;;;22.10;10.10;;;6.20;96.10;;;;;;5059197;28;20491;-59
2023/03/17 00:27:47;;;;;;;23.43;10.80;;;6.20;96.00;;;;;;5039153;28;20623;-59
2023/03/17 00:30:14;;;;;;;46.07;15.43;;;6.20;96.20;;;;;;5039476;28;20712;-59
2023/03/17 00:32:41;;;;;;;24.90;10.90;;;6.20;96.20;;;;;;5060502;28;20535;-59
2023/03/17 00:35:16;;;;;;;36.23;13.73;;;6.20;96.30;;;;;;5051892;28;20491;-59
2023/03/17 00:37:42;;;;;;;25.83;9.90;;;6.20;96.20;;;;;;5055571;28;20483;-59
2023/03/17 00:40:14;;;;;;;51.63;18.23;;;6.20;96.10;;;;;;5063179;28;20776;-59
2023/03/17 00:42:43;;;;;;;26.53;10.77;;;6.20;96.00;;;;;;5060019;28;20521;-60
2023/03/17 00:45:10;;;;;;;41.30;13.07;;;6.10;96.10;;;;;;5059185;28;20975;-59
2023/03/17 00:47:39;;;;;;;31.33;11.83;;;6.10;96.00;;;;;;5065525;28;20487;-60
2023/03/17 00:50:10;;;;;;;35.93;12.87;;;6.10;96.10;;;;;;5052487;28;20475;-60
2023/03/17 00:52:37;;;;;;;28.80;10.93;;;6.10;96.00;;;;;;5044264;28;21057;-60
2023/03/17 00:55:05;;;;;;;30.00;10.87;;;6.10;95.80;;;;;;5053515;28;20466;-59
2023/03/17 00:57:33;;;;;;;29.03;11.90;;;6.00;96.10;;;;;;5067586;28;20474;-59
2023/03/17 01:00:02;;;;;;;24.27;8.77;;;6.10;96.10;;;;;;5066490;28;20531;-59
2023/03/17 01:02:29;;;;;;;26.23;10.00;;;6.10;96.10;;;;;;5060349;28;20545;-59
2023/03/17 01:04:57;;;;;;;31.87;10.47;;;6.10;96.10;;;;;;5065152;28;20681;-59
2023/03/17 01:07:24;;;;;;;21.57;9.20;;;6.00;96.30;;;;;;5062320;28;20479;-59
2023/03/17 01:09:51;;;;;;;29.03;11.43;;;5.90;96.50;;;;;;5064643;28;21268;-60
2023/03/17 01:12:17;;;;;;;62.37;16.50;;;5.80;96.70;;;;;;5062760;28;20532;-59
2023/03/17 01:14:44;;;;;;;33.70;12.90;;;5.70;96.80;;;;;;5067736;28;20797;-59
2023/03/17 01:17:17;;;;;;;54.20;16.47;;;5.60;97.10;;;;;;5043171;28;21167;-59
2023/03/17 01:19:44;;;;;;;27.37;10.17;;;5.60;97.50;;;;;;5050913;28;20966;-59
2023/03/17 01:22:10;;;;;;;48.43;14.93;;;5.60;97.50;;;;;;5072936;28;20546;-59
2023/03/17 01:24:38;;;;;;;32.43;11.20;;;5.60;97.10;;;;;;5071271;28;20995;-59
2023/03/17 01:27:05;;;;;;;24.40;8.93;;;5.50;97.50;;;;;;5073538;28;20821;-60
2023/03/17 01:29:32;;;;;;;28.20;11.13;;;5.40;97.60;;;;;;5070693;28;20486;-59
2023/03/17 01:31:59;;;;;;;27.27;10.40;;;5.50;97.70;;;;;;5076785;28;21031;-59
2023/03/17 01:34:27;;;;;;;19.10;8.10;;;5.60;97.50;;;;;;5084079;28;20528;-60
2023/03/17 01:36:54;;;;;;;21.27;7.57;;;5.60;97.20;;;;;;5067541;28;20482;-59
2023/03/17 01:39:20;;;;;;;28.00;10.77;;;5.60;96.90;;;;;;5072850;28;20536;-59
2023/03/17 01:41:47;;;;;;;23.37;8.37;;;5.70;96.80;;;;;;5062239;28;20479;-59
2023/03/17 01:44:16;;;;;;;45.50;14.63;;;6.60;97.00;;;;;;5054136;28;20544;-59
2023/03/17 01:46:44;;;;;;;27.63;8.93;;;5.70;96.40;;;;;;5063550;28;20531;-59
2023/03/17 01:49:22;;;;;;;41.60;13.20;;;5.70;96.40;;;;;;5064724;28;20482;-60
2023/03/17 01:51:59;;;;;;;35.73;12.07;;;5.70;96.30;;;;;;5060779;28;21061;-59
2023/03/17 01:54:33;;;;;;;25.73;9.90;;;5.60;96.30;;;;;;5072095;28;20804;-59
2023/03/17 01:57:03;;;;;;;23.87;9.10;;;5.50;96.30;;;;;;5077161;28;20783;-59
2023/03/17 01:59:34;;;;;;;27.90;10.30;;;5.50;96.30;;;;;;5073799;28;20580;-59
2023/03/17 02:02:05;;;;;;;25.07;9.53;;;5.50;96.20;;;;;;5076212;28;20532;-59
2023/03/17 02:04:33;;;;;;;21.70;8.90;;;5.50;96.00;;;;;;5077423;28;20479;-60
2023/03/17 02:07:03;;;;;;;30.93;10.50;;;5.40;96.00;;;;;;5078172;28;20469;-59
2023/03/17 02:09:31;;;;;;;25.17;10.00;;;5.30;96.20;;;;;;5073326;28;20566;-59
2023/03/17 02:12:00;;;;;;;23.30;8.70;;;5.20;96.20;;;;;;5072648;28;21060;-60
2023/03/17 02:14:28;;;;;;;23.77;8.87;;;5.20;97.00;;;;;;5069588;28;20490;-59
2023/03/17 02:16:55;;;;;;;85.57;28.50;;;5.10;96.90;;;;;;5049371;28;20883;-59
2023/03/17 02:19:21;;;;;;;37.20;12.50;;;5.10;96.90;;;;;;5070500;28;21002;-59
2023/03/17 02:21:51;;;;;;;26.53;8.87;;;5.10;96.60;;;;;;5073764;28;20869;-59
2023/03/17 02:24:25;;;;;;;45.40;13.80;;;5.10;96.50;;;;;;5066648;28;20506;-59
2023/03/17 02:26:53;;;;;;;23.97;8.43;;;5.10;96.20;;;;;;5074071;28;20486;-59
2023/03/17 02:29:21;;;;;;;40.63;12.40;;;4.90;96.80;;;;;;5081122;28;21082;-60
2023/03/17 02:31:48;;;;;;;35.33;12.00;;;4.70;97.60;;;;;;5062009;28;20983;-59
2023/03/17 02:34:15;;;;;;;63.27;14.67;;;4.70;98.10;;;;;;5063432;28;21282;-59
2023/03/17 02:36:42;;;;;;;30.30;11.00;;;4.60;98.30;;;;;;5071735;28;20936;-60
2023/03/17 02:39:11;;;;;;;63.93;17.53;;;2.70;97.20;;;;;;5068940;28;20482;-59
2023/03/17 02:41:38;;;;;;;29.53;9.90;;;4.80;97.30;;;;;;5066050;28;20510;-59
2023/03/17 02:44:05;;;;;;;58.63;15.17;;;4.80;96.80;;;;;;5065419;28;20490;-59
2023/03/17 02:46:32;;;;;;;25.33;9.37;;;;;;;;;;5065809;28;20478;-59
2023/03/17 02:48:59;;;;;;;27.13;9.30;;;;;;;;;;5074010;28;20535;-59
2023/03/17 02:51:26;;;;;;;24.30;9.67;;;4.80;96.60;;;;;;5073976;28;20679;-59
2023/03/17 02:53:53;;;;;;;42.63;12.53;;;4.80;96.30;;;;;;5078219;28;20922;-59
2023/03/17 02:56:21;;;;;;;62.87;23.03;;;4.70;96.50;;;;;;5062596;28;20474;-59
2023/03/17 02:58:48;;;;;;;39.43;14.50;;;;;;;;;;5074208;28;20913;-59
2023/03/17 03:01:15;;;;;;;59.13;16.17;;;4.70;96.30;;;;;;5074607;28;20912;-59
2023/03/17 03:03:42;;;;;;;39.07;12.53;;;;;;;;;;5075074;28;20939;-59
2023/03/17 03:06:09;;;;;;;52.47;14.13;;;4.30;97.10;;;;;;5070591;28;20891;-59
2023/03/17 03:08:36;;;;;;;27.97;10.20;;;;;;;;;;5075736;28;21036;-59
2023/03/17 03:11:03;;;;;;;39.80;11.27;;;;;;;;;;5074247;28;20484;-59
2023/03/17 03:13:32;;;;;;;38.80;11.43;;;4.30;96.90;;;;;;5074348;28;20509;-59
2023/03/17 03:16:05;;;;;;;30.20;9.87;;;4.30;96.70;;;;;;5070282;28;20536;-59
2023/03/17 03:18:32;;;;;;;24.40;8.30;;;;;;;;;;5060722;28;20954;-59
2023/03/17 03:20:59;;;;;;;34.60;12.27;;;4.40;96.30;;;;;;5062819;28;20609;-59
2023/03/17 03:23:27;;;;;;;32.20;11.40;;;;;;;;;;5060422;28;20979;-59
2023/03/17 03:25:54;;;;;;;37.57;11.20;;;;;;;;;;5062965;28;20776;-59
2023/03/17 03:28:21;;;;;;;44.80;12.80;;;;;;;;;;5061297;28;21043;-59
2023/03/17 03:30:49;;;;;;;34.00;10.77;;;4.70;97.90;;;;;;5085765;28;20534;-59
2023/03/17 03:33:16;;;;;;;46.90;13.83;;;3.80;98.40;;;;;;5088681;28;20471;-59
2023/03/17 03:35:43;;;;;;;34.03;10.97;;;3.80;98.50;;;;;;5077624;28;20833;-60
2023/03/17 03:38:11;;;;;;;50.77;14.90;;;3.70;98.20;;;;;;5089283;28;20477;-59
2023/03/17 03:40:38;;;;;;;34.87;11.10;;;3.70;97.70;;;;;;5074318;28;20544;-59
2023/03/17 03:43:05;;;;;;;50.50;14.13;;;3.60;97.40;;;;;;5072699;28;20508;-59
2023/03/17 03:45:32;;;;;;;22.20;8.80;;;3.70;97.50;;;;;;5088574;28;20534;-59
2023/03/17 03:48:00;;;;;;;26.33;9.93;;;3.70;97.40;;;;;;5084463;28;20538;-59
2023/03/17 03:50:27;;;;;;;28.57;9.90;;;3.80;97.20;;;;;;5060082;28;20486;-60
2023/03/17 03:52:53;;;;;;;30.60;9.40;;;3.90;97.00;;;;;;5068173;28;21056;-59
2023/03/17 03:55:20;;;;;;;32.60;11.43;;;3.90;97.10;;;;;;5064958;28;20964;-59
2023/03/17 03:57:47;;;;;;;31.57;10.93;;;3.90;97.10;;;;;;5089536;28;20538;-59
2023/03/17 04:00:15;;;;;;;46.27;13.00;;;4.00;96.90;;;;;;5063646;28;21071;-59
2023/03/17 04:02:43;;;;;;;34.87;11.13;;;;;;;;;;5070905;28;21036;-59
2023/03/17 04:05:12;;;;;;;44.43;13.93;;;4.00;96.70;;;;;;5064156;28;20491;-59
2023/03/17 04:07:39;;;;;;;31.83;8.73;;;3.90;96.40;;;;;;5076492;28;21143;-59
2023/03/17 04:10:07;;;;;;;46.33;13.13;;;3.80;96.30;;;;;;5071722;28;20567;-59
2023/03/17 04:12:34;;;;;;;40.17;12.37;;;3.80;96.10;;;;;;5058096;28;20752;-60
2023/03/17 04:15:01;;;;;;;24.53;9.00;;;3.60;96.40;;;;;;5066213;28;20494;-59
2023/03/17 04:17:27;;;;;;;22.17;8.37;;;3.50;97.00;;;;;;5084532;28;20474;-60
2023/03/17 04:19:54;;;;;;;34.43;10.87;;;3.40;97.00;;;;;;5080330;28;20474;-59
2023/03/17 04:22:22;;;;;;;47.83;12.20;;;3.50;97.30;;;;;;5051395;28;20898;-59
2023/03/17 04:24:49;;;;;;;28.63;9.70;;;3.60;97.20;;;;;;5072682;28;20599;-59
2023/03/17 04:27:16;;;;;;;37.67;11.13;;;3.50;97.40;;;;;;5070930;28;20474;-59
2023/03/17 04:29:43;;;;;;;30.80;9.37;;;3.60;97.10;;;;;;5057632;28;20487;-60
2023/03/17 04:32:12;;;;;;;60.13;15.90;;;3.70;97.20;;;;;;5081573;28;20540;-59
2023/03/17 04:34:39;;;;;;;24.37;8.80;;;3.70;97.10;;;;;;5078623;28;20482;-59
2023/03/17 04:37:06;;;;;;;53.43;11.93;;;3.60;96.60;;;;;;5077774;28;20482;-59
2023/03/17 04:39:34;;;;;;;31.70;10.57;;;3.50;97.20;;;;;;5057708;28;21204;-59
2023/03/17 04:42:00;;;;;;;36.30;10.93;;;3.50;96.90;;;;;;5081795;28;20556;-59
2023/03/17 04:44:27;;;;;;;37.37;8.47;;;;;;;;;;5082428;28;20819;-59
2023/03/17 04:46:54;;;;;;;24.30;8.53;;;3.30;97.10;;;;;;5074221;28;20839;-59
2023/03/17 04:49:21;;;;;;;22.83;9.13;;;3.30;97.20;;;;;;5067170;28;20955;-59
2023/03/17 04:51:48;;;;;;;43.10;12.57;;;3.30;96.90;;;;;;5062977;28;20800;-58
2023/03/17 04:54:15;;;;;;;53.70;16.70;;;3.20;96.90;;;;;;5053115;28;20519;-59
2023/03/17 04:56:43;;;;;;;29.93;11.97;;;3.30;97.00;;;;;;5087561;28;20490;-59
2023/03/17 04:59:10;;;;;;;45.53;15.07;;;;;;;;;;5077060;28;20901;-59
2023/03/17 05:01:37;;;;;;;34.37;11.60;;;3.40;97.10;;;;;;5061515;28;20503;-59
2023/03/17 05:04:05;;;;;;;31.07;11.80;;;3.40;96.90;;;;;;5058318;28;20816;-60
2023/03/17 05:06:32;;;;;;;19.93;9.80;;;3.40;96.80;;;;;;5070139;28;20566;-59
2023/03/17 05:08:59;;;;;;;29.73;11.10;;;3.40;96.70;;;;;;5063616;28;20488;-59
2023/03/17 05:11:25;;;;;;;22.43;9.73;;;3.40;96.40;;;;;;5059651;28;20839;-59
2023/03/17 05:13:53;;;;;;;36.47;9.07;;;3.40;96.80;;;;;;5072927;28;20927;-59
2023/03/17 05:16:20;;;;;;;31.33;12.20;;;;;;;;;;5074074;28;21450;-59
2023/03/17 05:18:47;;;;;;;28.70;10.87;;;3.50;96.80;;;;;;5074519;28;20535;-59
2023/03/17 05:21:14;;;;;;;40.90;13.60;;;3.50;96.50;;;;;;5073912;28;20482;-59
2023/03/17 05:23:41;;;;;;;23.00;10.00;;;3.40;96.60;;;;;;5083065;28;20532;-59
2023/03/17 05:26:09;;;;;;;43.60;15.77;;;3.40;96.70;;;;;;5044806;28;20584;-59
2023/03/17 05:28:36;;;;;;;24.40;9.40;;;3.40;96.70;;;;;;5056946;28;20491;-59
2023/03/17 05:31:04;;;;;;;38.97;14.33;;;3.40;96.70;;;;;;5067772;28;20503;-59
2023/03/17 05:33:30;;;;;;;18.60;9.00;;;3.40;96.80;;;;;;5067237;28;20483;-59
2023/03/17 05:35:57;;;;;;;20.13;7.83;;;3.50;97.00;;;;;;5072193;28;20965;-59
2023/03/17 05:38:24;;;;;;;33.30;9.87;;;3.50;96.80;;;;;;5089599;28;20997;-59
2023/03/17 05:40:51;;;;;;;32.87;11.60;;;3.50;96.70;;;;;;5059830;28;20983;-59
2023/03/17 05:43:18;;;;;;;27.93;10.30;;;3.50;96.40;;;;;;5065427;28;20884;-59
2023/03/17 05:45:46;;;;;;;20.27;8.30;;;3.50;96.10;;;;;;5077874;28;20485;-60
2023/03/17 05:48:14;;;;;;;50.20;17.47;;;3.40;96.00;;;;;;5063245;28;20966;-59
2023/03/17 05:50:41;;;;;;;23.53;8.60;;;3.30;96.10;;;;;;5061516;28;20475;-60
2023/03/17 05:53:08;;;;;;;39.83;14.03;;;3.30;96.50;;;;;;5061500;28;20485;-59
2023/03/17 05:55:34;;;;;;;19.87;9.67;;;3.20;96.90;;;;;;5074693;28;21061;-59
2023/03/17 05:58:03;;;;;;;26.70;10.60;;;3.10;97.30;;;;;;5088086;28;20481;-59
2023/03/17 06:00:30;;;;;;;22.53;10.03;;;3.10;97.30;;;;;;5076622;28;20759;-59
2023/03/17 06:02:56;;;;;;;24.97;10.30;;;3.10;97.30;;;;;;5049328;28;20479;-59
2023/03/17 06:05:24;;;;;;;20.27;6.87;;;3.20;97.30;;;;;;5074384;28;20477;-59
2023/03/17 06:07:51;;;;;;;18.70;9.13;;;3.20;97.00;;;;;;5082862;28;21024;-59
2023/03/17 06:10:18;;;;;;;29.53;11.50;;;3.30;97.30;;;;;;5072009;28;20914;-59
2023/03/17 06:12:45;;;;;;;24.30;10.17;;;3.40;97.40;;;;;;5078103;28;21087;-59
2023/03/17 06:15:12;;;;;;;45.73;17.17;;;3.50;97.50;;;;;;5074529;28;20485;-59
2023/03/17 06:17:39;;;;;;;18.97;9.93;;;3.60;97.50;;;;;;5076616;28;21035;-59
2023/03/17 06:20:07;;;;;;;32.03;12.07;;;3.80;97.40;;;;;;5078965;28;20855;-59
2023/03/17 06:22:36;;;;;;;21.90;10.10;;;3.80;97.40;;;;;;5074115;28;20660;-59
2023/03/17 06:25:03;;;;;;;18.10;8.80;;;4.00;97.50;;;;;;5069722;28;20500;-59
2023/03/17 06:27:29;;;;;;;20.90;7.97;;;3.80;97.30;;;;;;5068207;28;20783;-60
2023/03/17 06:29:57;;;;;;;22.27;10.17;;;3.90;97.80;;;;;;5070047;28;20721;-59
2023/03/17 06:32:24;;;;;;;17.37;8.30;;;3.40;97.50;;;;;;5081403;28;20489;-60
2023/03/17 06:34:52;;;;;;;24.77;9.60;;;4.10;97.60;;;;;;5083166;28;20531;-59
2023/03/17 06:37:20;;;;;;;24.10;10.63;;;4.10;97.30;;;;;;5074802;28;21067;-59
2023/03/17 06:39:48;;;;;;;16.57;8.00;;;4.20;97.20;;;;;;5076387;28;20481;-59
2023/03/17 06:42:15;;;;;;;37.33;13.97;;;4.30;97.20;;;;;;5039644;28;20486;-59
2023/03/17 06:44:41;;;;;;;24.37;10.33;;;4.40;97.50;;;;;;5058373;28;20551;-59
2023/03/17 06:47:08;;;;;;;31.70;13.70;;;;;;;;;;5065374;28;20519;-59
2023/03/17 06:49:35;;;;;;;21.57;10.97;;;5.80;99.20;;;;;;5053105;28;20486;-59
2023/03/17 06:52:02;;;;;;;21.13;11.40;;;6.70;98.90;;;;;;5062634;28;20579;-59
2023/03/17 06:54:29;;;;;;;23.00;10.93;;;7.80;97.30;;;;;;5062483;28;20532;-60
2023/03/17 06:56:57;;;;;;;16.80;10.33;;;8.90;95.90;;;;;;5077935;28;20493;-60
2023/03/17 06:59:24;;;;;;;15.83;9.07;;;9.80;94.60;;;;;;5074837;28;20495;-60
2023/03/17 07:01:51;;;;;;;20.10;12.53;;;;;;;;;;5047142;28;20475;-60
2023/03/17 07:04:18;;;;;;;27.77;15.07;;;11.50;91.90;;;;;;5058314;28;20888;-59
2023/03/17 07:06:45;;;;;;;19.00;12.17;;;12.10;91.20;;;;;;5075532;28;20490;-60
2023/03/17 07:09:12;;;;;;;23.63;14.60;;;;;;;;;;5073026;28;20494;-60
2023/03/17 07:11:39;;;;;;;19.10;11.47;;;13.00;88.80;;;;;;5078970;28;20539;-60
2023/03/17 07:14:07;;;;;;;17.90;12.70;;;13.20;88.70;;;;;;5073345;28;20497;-60
2023/03/17 07:16:34;;;;;;;14.33;10.83;;;13.30;88.10;;;;;;5091981;28;20498;-60
2023/03/17 07:19:01;;;;;;;13.30;8.70;;;13.40;87.70;;;;;;5086305;28;20547;-60
2023/03/17 07:21:28;;;;;;;13.73;9.40;;;13.50;88.10;;;;;;5083559;28;20896;-60
2023/03/17 07:23:55;;;;;;;11.77;8.80;;;13.10;86.40;;;;;;5066419;28;20485;-60
2023/03/17 07:26:21;;;;;;;18.13;10.73;;;12.90;86.90;;;;;;5059459;28;20492;-60
2023/03/17 07:28:48;;;;;;;10.77;7.70;;;12.80;88.40;;;;;;5070229;28;20483;-60
2023/03/17 07:31:16;;;;;;;23.17;12.67;;;12.50;88.00;;;;;;5074942;28;20538;-60
2023/03/17 07:33:43;;;;;;;17.67;10.67;;;12.30;88.30;;;;;;5089726;28;20486;-60
2023/03/17 07:36:10;;;;;;;30.00;17.10;;;12.20;89.30;;;;;;5063689;28;20543;-60
2023/03/17 07:38:37;;;;;;;16.63;12.90;;;12.00;89.90;;;;;;5066214;28;20478;-60
2023/03/17 07:41:08;;;;;;;18.57;12.33;;;11.70;90.00;;;;;;5066908;28;20893;-60
2023/03/17 07:43:35;;;;;;;41.30;12.30;;;11.50;91.00;;;;;;5076623;28;20506;-60
2023/03/17 07:46:02;;;;;;;17.60;12.03;;;11.80;91.70;;;;;;5073024;28;20481;-60
2023/03/17 07:48:30;;;;;;;13.57;10.97;;;12.10;91.40;;;;;;5082232;28;21045;-60
2023/03/17 07:50:57;;;;;;;13.30;10.93;;;12.90;91.50;;;;;;5085372;28;20474;-60
2023/03/17 07:53:24;;;;;;;26.03;8.27;;;13.70;90.20;;;;;;5080098;28;20540;-60
2023/03/17 07:55:51;;;;;;;12.23;10.10;;;14.40;91.10;;;;;;5087866;28;20960;-61
2023/03/17 07:58:19;;;;;;;14.43;10.57;;;14.70;88.30;;;;;;5091977;28;20628;-61
2023/03/17 08:00:47;;;;;;;9.70;7.63;;;15.00;87.20;;;;;;5073133;28;20479;-60
2023/03/17 08:03:13;;;;;;;14.53;10.23;;;15.20;87.70;;;;;;5059415;28;20855;-61
2023/03/17 08:05:41;;;;;;;11.43;9.07;;;15.10;88.50;;;;;;5069766;28;20852;-60
2023/03/17 08:08:09;;;;;;;10.93;8.30;;;15.20;89.20;;;;;;5060439;28;20548;-61
2023/03/17 08:10:36;;;;;;;11.97;7.60;;;14.90;89.20;;;;;;5062905;28;20975;-61
2023/03/17 08:13:02;;;;;;;8.37;6.70;;;14.80;90.10;;;;;;5067548;28;21040;-61
2023/03/17 08:15:29;;;;;;;8.70;6.10;;;14.60;90.80;;;;;;5062358;28;20486;-61
2023/03/17 08:17:56;;;;;;;25.20;18.43;;;14.60;90.30;;;;;;5061927;28;20567;-60
2023/03/17 08:20:22;;;;;;;12.73;8.03;;;14.50;89.20;;;;;;5051724;28;20558;-61
2023/03/17 08:22:50;;;;;;;13.17;5.53;;;14.30;86.00;;;;;;5072697;28;20479;-61
2023/03/17 08:25:17;;;;;;;13.97;9.17;;;14.10;86.60;;;;;;5059999;28;20496;-61
2023/03/17 08:27:44;;;;;;;9.30;7.10;;;14.10;87.40;;;;;;5052423;28;20490;-60
2023/03/17 08:30:12;;;;;;;12.33;8.40;;;13.90;89.10;;;;;;5061628;28;20485;-61
2023/03/17 08:32:39;;;;;;;9.90;6.50;;;13.80;87.40;;;;;;5069232;28;20486;-61
2023/03/17 08:35:06;;;;;;;11.30;7.10;;;13.80;88.00;;;;;;5073753;28;20547;-61
2023/03/17 08:37:33;;;;;;;28.33;5.50;;;13.70;86.60;;;;;;5073221;28;20482;-61
2023/03/17 08:40:01;;;;;;;15.83;7.80;;;13.80;86.50;;;;;;5053173;28;21087;-61
2023/03/17 08:42:27;;;;;;;8.27;5.60;;;13.90;88.30;;;;;;5072699;28;20551;-61
2023/03/17 08:44:54;;;;;;;24.63;6.97;;;13.90;84.30;;;;;;5054645;28;20475;-61
2023/03/17 08:47:21;;;;;;;11.80;7.70;;;14.10;88.70;;;;;;5051695;28;20482;-61
2023/03/17 08:49:47;;;;;;;19.80;12.50;;;14.10;84.80;;;;;;5060668;28;20560;-61
2023/03/17 08:52:14;;;;;;;13.20;8.50;;;14.20;84.70;;;;;;5052031;28;20687;-61
2023/03/17 08:54:41;;;;;;;8.70;6.17;;;14.30;86.90;;;;;;5036446;28;20498;-61
2023/03/17 08:57:09;;;;;;;12.47;7.83;;;14.20;82.20;;;;;;5046488;28;20570;-61
2023/03/17 08:59:36;;;;;;;25.03;7.43;;;14.20;82.10;;;;;;5060968;28;21010;-61
2023/03/17 09:02:02;;;;;;;12.77;6.80;;;14.20;82.20;;;;;;5051814;28;20930;-61
2023/03/17 09:04:29;;;;;;;9.27;6.37;;;14.20;83.90;;;;;;5055955;28;20889;-61
2023/03/17 09:06:56;;;;;;;16.80;6.40;;;14.10;83.30;;;;;;5057141;28;20540;-61
2023/03/17 09:09:23;;;;;;;13.83;7.87;;;14.10;82.30;;;;;;5036946;28;20630;-61
2023/03/17 09:11:50;;;;;;;11.67;7.00;;;14.20;83.00;;;;;;5055422;28;20513;-60
2023/03/17 09:14:18;;;;;;;18.83;9.80;;;14.20;83.30;;;;;;5046180;28;21075;-61
2023/03/17 09:16:47;;;;;;;15.43;7.20;;;14.20;81.50;;;;;;5009396;28;20501;-61
2023/03/17 09:19:15;;;;;;;17.30;9.23;;;14.30;83.00;;;;;;4992104;28;21412;-61
2023/03/17 09:21:42;;;;;;;16.33;5.47;;;14.40;84.40;;;;;;5054246;28;20486;-61
2023/03/17 09:24:09;;;;;;;21.80;12.60;;;14.50;86.60;;;;;;5052353;28;20630;-61
2023/03/17 09:26:36;;;;;;;11.80;7.17;;;14.50;82.20;;;;;;5058194;28;20495;-61
2023/03/17 09:29:04;;;;;;;19.07;6.50;;;14.60;81.00;;;;;;5048269;28;20495;-61
2023/03/17 09:31:32;;;;;;;7.37;4.70;;;14.50;78.60;;;;;;5044601;28;20739;-61
2023/03/17 09:33:58;;;;;;;16.70;8.33;;;14.60;82.10;;;;;;5062552;28;20775;-61
2023/03/17 09:36:25;;;;;;;16.20;6.00;;;14.70;86.60;;;;;;5048138;28;20973;-61
2023/03/17 09:38:52;;;;;;;9.57;5.93;;;14.70;82.60;;;;;;5055454;28;20480;-61
2023/03/17 09:41:44;;;;;;;18.77;8.73;;;14.80;81.30;;;;;;5051587;28;20562;-61
2023/03/17 09:44:23;;;;;;;15.60;9.13;;;15.00;81.80;;;;;;5036255;28;21068;-61
2023/03/17 09:47:01;;;;;;;10.63;5.40;;;15.10;80.20;;;;;;5060539;28;21100;-61
2023/03/17 09:49:35;;;;;;;9.77;6.00;;;15.20;80.10;;;;;;5065564;28;20562;-61
2023/03/17 09:52:02;;;;;;;13.83;6.97;;;15.20;79.90;;;;;;5036126;28;20470;-60
2023/03/17 09:54:33;;;;;;;8.73;5.40;;;15.20;79.60;;;;;;5050985;28;21212;-61
2023/03/17 09:57:06;;;;;;;10.40;5.77;;;15.30;79.10;;;;;;5054130;28;20563;-61
2023/03/17 09:59:35;;;;;;;10.30;5.30;;;15.20;76.70;;;;;;5049002;28;20490;-61
2023/03/17 10:02:19;;;;;;;11.53;6.77;;;15.20;79.00;;;;;;5037063;28;20533;-61
2023/03/17 10:04:47;;;;;;;16.17;5.83;;;15.50;80.20;;;;;;5048881;28;20591;-61
2023/03/17 10:07:18;;;;;;;18.77;8.70;;;15.50;80.00;;;;;;5050349;28;20483;-61
2023/03/17 10:09:59;;;;;;;10.13;6.10;;;15.60;77.00;;;;;;5051332;28;20477;-61
2023/03/17 10:12:42;;;;;;;12.57;6.90;;;15.80;78.60;;;;;;5048331;28;22048;-61
2023/03/17 10:15:17;;;;;;;21.50;5.27;;;15.90;75.70;;;;;;5061420;28;20681;-61
2023/03/17 10:17:46;;;;;;;13.50;6.87;;;16.00;76.20;;;;;;5049300;28;20470;-61
2023/03/17 10:20:16;;;;;;;17.60;9.70;;;15.90;75.90;;;;;;5066831;28;20485;-61
2023/03/17 10:22:46;;;;;;;11.20;5.93;;;15.90;76.00;;;;;;5057703;28;20881;-62
2023/03/17 10:25:15;;;;;;;18.13;10.10;;;16.00;76.20;;;;;;5056361;28;20479;-60
2023/03/17 10:27:46;;;;;;;17.20;6.90;;;16.00;73.90;;;;;;5058412;28;20467;-61
2023/03/17 10:30:18;;;;;;;17.57;9.63;;;16.10;79.50;;;;;;5055689;28;20587;-61
2023/03/17 10:32:47;;;;;;;10.70;6.20;;;16.00;77.20;;;;;;5041050;28;20482;-61
2023/03/17 10:35:15;;;;;;;19.53;9.03;;;16.00;73.30;;;;;;5052085;28;20821;-62
2023/03/17 10:37:43;;;;;;;9.90;5.87;;;16.00;76.30;;;;;;5048977;28;20476;-61
2023/03/17 10:40:21;;;;;;;16.20;9.33;;;16.10;75.40;;;;;;5045552;28;20481;-60
2023/03/17 10:42:52;;;;;;;10.00;6.10;;;16.10;78.90;;;;;;5052509;28;20474;-60
2023/03/17 10:45:24;;;;;;;17.23;9.90;;;16.30;79.50;;;;;;5052691;28;20487;-60
2023/03/17 10:47:56;;;;;;;11.23;4.77;;;16.40;76.30;;;;;;5046714;28;20482;-60
2023/03/17 10:50:25;;;;;;;13.17;7.20;;;16.40;74.10;;;;;;5038438;28;20487;-59
2023/03/17 10:52:59;;;;;;;12.20;6.17;;;16.50;75.20;;;;;;5059748;28;20490;-60
2023/03/17 10:55:29;;;;;;;8.30;4.47;;;16.40;71.40;;;;;;5053997;28;20477;-60
2023/03/17 10:58:03;;;;;;;7.27;4.80;;;16.40;73.70;;;;;;5056905;28;20485;-61
2023/03/17 11:00:33;;;;;;;12.33;4.97;;;16.60;75.60;;;;;;5052624;28;20486;-62
2023/03/17 11:03:09;;;;;;;14.40;7.63;;;16.60;71.10;;;;;;5041531;28;20485;-62
2023/03/17 11:05:37;;;;;;;13.13;4.27;;;16.50;73.30;;;;;;5053552;28;20482;-61
2023/03/17 11:08:11;;;;;;;10.30;6.40;;;16.60;73.10;;;;;;5043081;28;20948;-62
2023/03/17 11:10:40;;;;;;;9.33;6.10;;;16.50;71.60;;;;;;5058481;28;21521;-61
2023/03/17 11:13:08;;;;;;;12.00;7.87;;;16.40;72.90;;;;;;5048789;28;20833;-61
2023/03/17 11:15:40;;;;;;;11.90;5.27;;;16.90;73.60;;;;;;5051202;28;20490;-62
2023/03/17 11:18:14;;;;;;;8.73;5.63;;;16.60;74.10;;;;;;5056131;28;20904;-61
2023/03/17 11:20:46;;;;;;;13.63;8.37;;;16.60;75.00;;;;;;5037737;28;21228;-61
2023/03/17 11:23:21;;;;;;;17.20;10.33;;;;;;;;;;5056916;28;20539;-62
2023/03/17 11:25:53;;;;;;;20.67;6.30;;;16.60;72.30;;;;;;5057799;28;20490;-62
2023/03/17 11:28:21;;;;;;;14.33;7.50;;;16.50;69.30;;;;;;5035083;28;20476;-61
2023/03/17 11:30:56;;;;;;;25.03;5.67;;;16.50;69.70;;;;;;5052995;28;20541;-62
2023/03/17 11:33:35;;;;;;;9.53;5.80;;;16.60;71.30;;;;;;5058371;28;20477;-62
2023/03/17 11:36:09;;;;;;;8.50;4.83;;;16.70;73.10;;;;;;5041745;28;20905;-62
2023/03/17 11:38:40;;;;;;;19.23;9.20;;;16.80;75.20;;;;;;5055672;28;20480;-61
2023/03/17 11:41:24;;;;;;;11.17;6.97;;;16.70;73.40;;;;;;5055014;28;20974;-61
2023/03/17 11:44:05;;;;;;;9.00;5.57;;;16.90;75.50;;;;;;5051077;28;20726;-62
2023/03/17 11:46:36;;;;;;;10.40;5.60;;;17.00;71.30;;;;;;5024271;28;20479;-62
2023/03/17 11:49:10;;;;;;;9.83;6.23;;;17.10;73.00;;;;;;5024543;28;20482;-61
2023/03/17 11:51:49;;;;;;;12.73;7.03;;;17.10;72.20;;;;;;5043808;28;20863;-61
2023/03/17 11:54:23;;;;;;;22.77;8.50;;;17.00;68.10;;;;;;5055857;28;20483;-62
2023/03/17 11:56:53;;;;;;;15.53;7.70;;;17.00;67.20;;;;;;5050873;28;21916;-61
2023/03/17 11:59:29;;;;;;;12.80;7.90;;;17.30;69.30;;;;;;5046458;28;20479;-62
2023/03/17 12:02:03;;;;;;;10.23;5.83;;;17.30;70.80;;;;;;5054941;28;20562;-61
2023/03/17 12:04:36;;;;;;;12.00;5.07;;;17.40;70.70;;;;;;5059223;28;20485;-62
2023/03/17 12:07:10;;;;;;;9.53;4.90;;;17.40;68.30;;;;;;5063721;28;20486;-61
2023/03/17 12:09:41;;;;;;;10.50;5.83;;;17.50;69.50;;;;;;5053593;28;20819;-61
2023/03/17 12:12:12;;;;;;;15.93;9.07;;;17.50;68.60;;;;;;5033975;28;20514;-61
2023/03/17 12:14:44;;;;;;;13.17;7.60;;;17.50;71.60;;;;;;5065176;28;20479;-62
2023/03/17 12:17:17;;;;;;;14.60;8.73;;;17.60;71.10;;;;;;5051200;28;20475;-61
2023/03/17 12:19:58;;;;;;;10.23;5.60;;;17.60;69.60;;;;;;5059336;28;20502;-62
2023/03/17 12:22:31;;;;;;;10.33;4.10;;;17.70;74.20;;;;;;5057330;28;20552;-61
2023/03/17 12:25:10;;;;;;;9.30;5.30;;;17.80;70.30;;;;;;5047657;28;20465;-61
2023/03/17 12:27:42;;;;;;;15.93;5.53;;;17.70;68.80;;;;;;5013936;28;20559;-61
2023/03/17 12:30:23;;;;;;;18.33;9.23;;;17.60;68.30;;;;;;5053776;28;20474;-60
2023/03/17 12:32:59;;;;;;;13.27;4.97;;;17.70;68.30;;;;;;5046528;28;20785;-61
2023/03/17 12:35:30;;;;;;;10.30;6.43;;;17.60;71.10;;;;;;5048154;28;20481;-61
2023/03/17 12:37:59;;;;;;;18.33;5.23;;;17.60;69.90;;;;;;5033193;28;21471;-61
2023/03/17 12:40:32;;;;;;;8.17;4.67;;;17.70;72.50;;;;;;5037394;28;25755;-61
2023/03/17 12:43:22;;;;;;;12.13;6.60;;;17.50;68.40;;;;;;5054572;28;20474;-61
2023/03/17 12:46:14;;;;;;;13.63;7.27;;;17.70;72.10;;;;;;5041142;28;20531;-61
2023/03/17 12:49:00;;;;;;;13.30;6.83;;;17.70;68.70;;;;;;5039466;28;20533;-61
2023/03/17 12:51:55;;;;;;;15.20;5.50;;;17.90;71.90;;;;;;5051804;28;20471;-61